createdAt,value
2023-05-17T00:00:58.926Z,6.33
2023-05-17T00:01:58.934Z,6.33
2023-05-17T00:02:58.973Z,6.28
2023-05-17T00:03:58.898Z,6.26
2023-05-17T00:04:59.068Z,6.26
2023-05-17T00:05:58.968Z,6.08
2023-05-17T00:06:58.913Z,6.09
2023-05-17T00:07:58.866Z,6.12
2023-05-17T00:08:58.857Z,6.04
2023-05-17T00:09:58.858Z,5.98
2023-05-17T00:10:58.848Z,5.93
2023-05-17T00:11:58.874Z,5.98
2023-05-17T00:12:58.826Z,5.98
2023-05-17T00:13:58.828Z,5.99
2023-05-17T00:14:58.821Z,6.04
2023-05-17T00:15:58.843Z,6.01
2023-05-17T00:16:58.911Z,5.91
2023-05-17T00:17:58.842Z,5.84
2023-05-17T00:18:58.917Z,5.79
2023-05-17T00:19:58.785Z,5.87
2023-05-17T00:20:58.800Z,5.89
2023-05-17T00:21:58.825Z,5.86
2023-05-17T00:22:58.751Z,5.83
2023-05-17T00:23:58.747Z,5.73
2023-05-17T00:24:58.750Z,5.69
2023-05-17T00:25:58.760Z,5.64
2023-05-17T00:26:58.722Z,5.69
2023-05-17T00:27:58.752Z,5.68
2023-05-17T00:28:58.714Z,5.64
2023-05-17T00:29:58.729Z,5.62
2023-05-17T00:30:58.723Z,5.64
2023-05-17T00:31:58.691Z,5.73
2023-05-17T00:32:58.722Z,5.62
2023-05-17T00:33:58.672Z,5.62
2023-05-17T00:34:58.734Z,5.61
2023-05-17T00:35:58.663Z,5.43
2023-05-17T00:36:58.655Z,5.47
2023-05-17T00:37:58.716Z,5.47
2023-05-17T00:38:58.631Z,5.41
2023-05-17T00:39:58.649Z,5.46
2023-05-17T00:40:58.628Z,5.43
2023-05-17T00:41:58.614Z,5.46
2023-05-17T00:42:58.611Z,5.46
2023-05-17T00:43:58.624Z,5.53
2023-05-17T00:44:58.615Z,5.47
2023-05-17T00:45:58.597Z,5.50
2023-05-17T00:46:58.585Z,5.47
2023-05-17T00:47:58.647Z,5.47
2023-05-17T00:48:58.586Z,5.47
2023-05-17T00:49:58.561Z,5.48
2023-05-17T00:50:58.577Z,5.51
2023-05-17T00:51:58.528Z,5.51
2023-05-17T00:52:58.528Z,5.46
2023-05-17T00:53:58.595Z,5.53
2023-05-17T00:54:58.514Z,5.54
2023-05-17T00:55:58.523Z,5.48
2023-05-17T00:56:58.496Z,5.54
2023-05-17T00:57:58.517Z,5.53
2023-05-17T00:58:58.510Z,5.56
2023-05-17T00:59:58.474Z,5.56
2023-05-17T01:00:58.459Z,5.48
2023-05-17T01:01:58.459Z,5.61
2023-05-17T01:02:58.561Z,5.53
2023-05-17T01:03:58.557Z,5.54
2023-05-17T01:04:58.511Z,5.59
2023-05-17T01:05:58.437Z,5.53
2023-05-17T01:06:58.484Z,5.51
2023-05-17T01:07:58.435Z,5.56
2023-05-17T01:08:58.408Z,5.56
2023-05-17T01:09:58.504Z,5.56
2023-05-17T01:10:58.390Z,5.51
2023-05-17T01:11:58.405Z,5.54
2023-05-17T01:12:58.373Z,5.54
2023-05-17T01:13:58.368Z,5.61
2023-05-17T01:14:58.364Z,5.48
2023-05-17T01:15:58.361Z,5.43
2023-05-17T01:16:58.367Z,5.41
2023-05-17T01:17:58.399Z,5.28
2023-05-17T01:18:58.475Z,5.23
2023-05-17T01:19:58.508Z,5.12
2023-05-17T01:20:58.308Z,5.12
2023-05-17T01:21:58.359Z,5.15
2023-05-17T01:22:58.292Z,5.10
2023-05-17T01:23:58.287Z,5.08
2023-05-17T01:24:58.281Z,5.05
2023-05-17T01:25:58.369Z,5.02
2023-05-17T01:26:58.285Z,5.11
2023-05-17T01:27:58.262Z,5.12
2023-05-17T01:28:58.251Z,5.25
2023-05-17T01:29:58.261Z,5.28
2023-05-17T01:30:58.257Z,5.20
2023-05-17T01:31:58.281Z,5.26
2023-05-17T01:32:58.375Z,5.21
2023-05-17T01:33:58.299Z,5.21
2023-05-17T01:34:58.212Z,5.21
2023-05-17T01:35:58.217Z,5.20
2023-05-17T01:36:58.202Z,5.12
2023-05-17T01:37:58.191Z,5.18
2023-05-17T01:38:58.188Z,5.25
2023-05-17T01:39:58.189Z,5.25
2023-05-17T01:40:58.210Z,5.32
2023-05-17T01:41:58.198Z,5.15
2023-05-17T01:42:58.170Z,5.21
2023-05-17T01:43:58.150Z,5.20
2023-05-17T01:44:58.157Z,5.21
2023-05-17T01:45:58.141Z,5.14
2023-05-17T01:46:58.110Z,5.07
2023-05-17T01:47:58.213Z,5.10
2023-05-17T01:48:58.108Z,5.15
2023-05-17T01:49:58.113Z,5.08
2023-05-17T01:50:58.221Z,5.05
2023-05-17T01:51:58.081Z,5.04
2023-05-17T01:52:58.054Z,5.15
2023-05-17T01:53:59.083Z,5.21
2023-05-17T01:54:58.074Z,5.14
2023-05-17T01:55:59.077Z,5.18
2023-05-17T01:56:58.034Z,5.02
2023-05-17T01:57:58.097Z,5.14
2023-05-17T01:58:58.051Z,5.10
2023-05-17T01:59:58.004Z,5.12
2023-05-17T02:00:58.009Z,5.10
2023-05-17T02:01:57.992Z,5.07
2023-05-17T02:02:58.049Z,5.00
2023-05-17T02:03:58.007Z,5.02
2023-05-17T02:04:57.986Z,5.00
2023-05-17T02:05:57.961Z,5.02
2023-05-17T02:06:57.959Z,5.00
2023-05-17T02:07:57.999Z,4.96
2023-05-17T02:08:57.974Z,5.07
2023-05-17T02:09:57.953Z,5.04
2023-05-17T02:10:57.922Z,5.07
2023-05-17T02:11:57.928Z,5.08
2023-05-17T02:12:57.936Z,5.12
2023-05-17T02:13:57.960Z,5.08
2023-05-17T02:14:57.894Z,5.14
2023-05-17T02:15:57.887Z,5.14
2023-05-17T02:16:57.883Z,5.17
2023-05-17T02:17:58.004Z,5.18
2023-05-17T02:18:57.946Z,5.18
2023-05-17T02:19:57.863Z,5.18
2023-05-17T02:20:57.849Z,5.26
2023-05-17T02:21:57.889Z,5.25
2023-05-17T02:22:57.860Z,5.29
2023-05-17T02:23:57.835Z,5.33
2023-05-17T02:24:57.820Z,5.23
2023-05-17T02:25:57.811Z,5.23
2023-05-17T02:26:57.873Z,5.28
2023-05-17T02:27:57.798Z,5.32
2023-05-17T02:28:57.788Z,5.30
2023-05-17T02:29:57.838Z,5.25
2023-05-17T02:30:57.768Z,5.26
2023-05-17T02:31:57.832Z,5.28
2023-05-17T02:32:57.881Z,5.26
2023-05-17T02:33:57.817Z,5.26
2023-05-17T02:34:57.743Z,5.15
2023-05-17T02:35:57.764Z,5.26
2023-05-17T02:36:57.754Z,5.23
2023-05-17T02:37:57.790Z,5.32
2023-05-17T02:38:57.709Z,5.23
2023-05-17T02:39:57.711Z,5.28
2023-05-17T02:40:57.731Z,5.26
2023-05-17T02:41:57.688Z,5.21
2023-05-17T02:42:57.774Z,5.30
2023-05-17T02:43:57.683Z,5.38
2023-05-17T02:44:57.667Z,5.32
2023-05-17T02:45:57.731Z,5.36
2023-05-17T02:46:58.704Z,5.44
2023-05-17T02:47:57.663Z,5.36
2023-05-17T02:48:57.645Z,5.41
2023-05-17T02:49:57.670Z,5.43
2023-05-17T02:50:57.647Z,5.32
2023-05-17T02:51:57.612Z,5.44
2023-05-17T02:52:57.622Z,5.41
2023-05-17T02:53:57.602Z,5.35
2023-05-17T02:54:57.638Z,5.41
2023-05-17T02:55:57.587Z,5.43
2023-05-17T02:56:57.569Z,5.32
2023-05-17T02:57:57.563Z,5.47
2023-05-17T02:58:57.592Z,5.38
2023-05-17T02:59:57.566Z,5.43
2023-05-17T03:00:57.535Z,5.39
2023-05-17T03:01:57.584Z,5.50
2023-05-17T03:02:57.587Z,5.35
2023-05-17T03:03:57.650Z,5.47
2023-05-17T03:04:57.536Z,5.38
2023-05-17T03:05:57.501Z,5.51
2023-05-17T03:06:57.499Z,5.50
2023-05-17T03:07:57.516Z,5.53
2023-05-17T03:08:57.509Z,5.50
2023-05-17T03:09:57.496Z,5.62
2023-05-17T03:10:57.484Z,5.51
2023-05-17T03:11:57.457Z,5.48
2023-05-17T03:12:57.446Z,5.65
2023-05-17T03:13:57.482Z,5.72
2023-05-17T03:14:57.435Z,5.66
2023-05-17T03:15:57.432Z,5.69
2023-05-17T03:16:57.416Z,5.72
2023-05-17T03:17:57.864Z,5.75
2023-05-17T03:18:57.666Z,5.83
2023-05-17T03:19:57.417Z,5.90
2023-05-17T03:20:57.390Z,5.86
2023-05-17T03:21:57.388Z,5.93
2023-05-17T03:22:57.370Z,5.93
2023-05-17T03:23:57.396Z,5.86
2023-05-17T03:24:57.353Z,5.94
2023-05-17T03:25:57.343Z,5.99
2023-05-17T03:26:57.343Z,6.07
2023-05-17T03:27:57.357Z,6.07
2023-05-17T03:28:57.361Z,5.94
2023-05-17T03:29:57.315Z,6.08
2023-05-17T03:30:57.331Z,6.07
2023-05-17T03:31:57.312Z,6.01
2023-05-17T03:32:57.371Z,6.07
2023-05-17T03:33:57.330Z,5.99
2023-05-17T03:34:57.290Z,5.94
2023-05-17T03:35:57.281Z,5.91
2023-05-17T03:36:57.264Z,5.97
2023-05-17T03:37:57.280Z,5.94
2023-05-17T03:38:57.248Z,6.02
2023-05-17T03:39:57.249Z,5.94
2023-05-17T03:40:57.232Z,5.98
2023-05-17T03:41:57.252Z,5.89
2023-05-17T03:42:57.240Z,6.01
2023-05-17T03:43:57.218Z,5.99
2023-05-17T03:44:57.199Z,6.04
2023-05-17T03:45:57.190Z,5.98
2023-05-17T03:46:57.215Z,5.98
2023-05-17T03:47:57.188Z,5.91
2023-05-17T03:48:57.227Z,6.01
2023-05-17T03:49:57.404Z,6.05
2023-05-17T03:50:57.154Z,6.09
2023-05-17T03:51:57.173Z,6.04
2023-05-17T03:52:57.154Z,6.17
2023-05-17T03:53:57.139Z,6.09
2023-05-17T03:54:57.148Z,6.19
2023-05-17T03:55:57.136Z,6.19
2023-05-17T03:56:57.134Z,6.14
2023-05-17T03:57:57.095Z,6.14
2023-05-17T03:58:57.101Z,6.19
2023-05-17T03:59:57.083Z,6.12
2023-05-17T04:00:57.097Z,6.27
2023-05-17T04:01:57.066Z,6.31
2023-05-17T04:02:57.134Z,6.33
2023-05-17T04:03:57.093Z,6.45
2023-05-17T04:04:57.078Z,6.44
2023-05-17T04:05:57.115Z,6.46
2023-05-17T04:06:57.024Z,6.44
2023-05-17T04:07:57.025Z,6.44
2023-05-17T04:08:57.018Z,6.59
2023-05-17T04:09:57.014Z,6.52
2023-05-17T04:10:57.038Z,6.57
2023-05-17T04:11:56.999Z,6.57
2023-05-17T04:12:56.986Z,6.63
2023-05-17T04:13:56.975Z,6.64
2023-05-17T04:14:56.964Z,6.60
2023-05-17T04:15:57.008Z,6.67
2023-05-17T04:16:56.955Z,6.75
2023-05-17T04:17:57.028Z,6.77
2023-05-17T04:18:56.998Z,6.77
2023-05-17T04:19:56.997Z,6.74
2023-05-17T04:20:56.956Z,6.72
2023-05-17T04:21:56.967Z,6.75
2023-05-17T04:22:56.923Z,6.75
2023-05-17T04:23:56.909Z,6.85
2023-05-17T04:24:56.933Z,6.84
2023-05-17T04:25:56.883Z,6.89
2023-05-17T04:26:56.894Z,6.84
2023-05-17T04:27:56.868Z,6.92
2023-05-17T04:28:56.859Z,6.89
2023-05-17T04:29:56.924Z,6.87
2023-05-17T04:30:56.845Z,6.89
2023-05-17T04:31:56.827Z,6.96
2023-05-17T04:32:57.858Z,6.96
2023-05-17T04:33:56.888Z,6.97
2023-05-17T04:34:56.850Z,6.93
2023-05-17T04:35:56.898Z,6.95
2023-05-17T04:36:56.806Z,7.02
2023-05-17T04:37:56.964Z,7.03
2023-05-17T04:38:56.807Z,7.07
2023-05-17T04:39:56.783Z,7.03
2023-05-17T04:40:56.770Z,7.10
2023-05-17T04:41:56.771Z,7.15
2023-05-17T04:42:56.755Z,7.28
2023-05-17T04:43:56.774Z,7.28
2023-05-17T04:44:56.741Z,7.24
2023-05-17T04:45:56.807Z,7.28
2023-05-17T04:46:56.760Z,7.33
2023-05-17T04:47:56.795Z,7.28
2023-05-17T04:48:56.825Z,7.31
2023-05-17T04:49:56.702Z,7.33
2023-05-17T04:50:56.718Z,7.33
2023-05-17T04:51:56.687Z,7.39
2023-05-17T04:52:56.684Z,7.50
2023-05-17T04:53:56.747Z,7.58
2023-05-17T04:54:56.663Z,7.54
2023-05-17T04:55:56.684Z,7.60
2023-05-17T04:56:56.650Z,7.61
2023-05-17T04:57:56.669Z,7.67
2023-05-17T04:58:56.633Z,7.73
2023-05-17T04:59:56.667Z,7.77
2023-05-17T05:00:56.638Z,7.63
2023-05-17T05:01:56.608Z,7.76
2023-05-17T05:02:56.628Z,7.75
2023-05-17T05:03:56.692Z,7.80
2023-05-17T05:04:56.636Z,7.85
2023-05-17T05:05:56.584Z,7.82
2023-05-17T05:06:56.578Z,7.85
2023-05-17T05:07:56.574Z,7.75
2023-05-17T05:08:56.556Z,7.77
2023-05-17T05:09:56.568Z,7.88
2023-05-17T05:10:56.539Z,7.94
2023-05-17T05:11:57.123Z,7.98
2023-05-17T05:12:56.528Z,7.94
2023-05-17T05:13:56.525Z,7.93
2023-05-17T05:14:56.529Z,7.95
2023-05-17T05:15:56.495Z,8.00
2023-05-17T05:16:56.495Z,7.98
2023-05-17T05:17:56.534Z,8.01
2023-05-17T05:18:56.611Z,8.19
2023-05-17T05:19:56.527Z,8.13
2023-05-17T05:20:56.488Z,8.18
2023-05-17T05:21:56.469Z,8.13
2023-05-17T05:22:56.444Z,8.19
2023-05-17T05:23:56.455Z,8.23
2023-05-17T05:24:56.465Z,8.28
2023-05-17T05:25:56.417Z,8.19
2023-05-17T05:26:56.419Z,8.10
2023-05-17T05:27:56.408Z,8.09
2023-05-17T05:28:56.399Z,8.10
2023-05-17T05:29:56.416Z,8.00
2023-05-17T05:30:56.386Z,7.95
2023-05-17T05:31:56.410Z,8.01
2023-05-17T05:32:56.445Z,7.85
2023-05-17T05:33:56.431Z,7.85
2023-05-17T05:34:56.388Z,7.91
2023-05-17T05:35:56.341Z,7.95
2023-05-17T05:36:56.485Z,7.88
2023-05-17T05:37:56.341Z,7.93
2023-05-17T05:38:56.364Z,8.15
2023-05-17T05:39:56.344Z,8.15
2023-05-17T05:40:56.312Z,8.28
2023-05-17T05:41:56.354Z,8.26
2023-05-17T05:42:56.307Z,8.58
2023-05-17T05:43:56.310Z,8.56
2023-05-17T05:44:56.274Z,8.67
2023-05-17T05:45:57.282Z,8.89
2023-05-17T05:46:56.310Z,9.06
2023-05-17T05:47:56.308Z,9.10
2023-05-17T05:48:56.291Z,9.00
2023-05-17T05:49:56.249Z,9.03
2023-05-17T05:50:56.233Z,9.06
2023-05-17T05:51:56.224Z,9.04
2023-05-17T05:53:03.820Z,9.04
2023-05-17T05:53:58.238Z,9.22
2023-05-17T05:54:56.202Z,9.26
2023-05-17T05:55:56.217Z,9.34
2023-05-17T05:56:56.191Z,9.32
2023-05-17T05:57:56.298Z,9.21
2023-05-17T05:58:56.201Z,9.31
2023-05-17T05:59:56.169Z,8.99
2023-05-17T06:00:56.160Z,8.88
2023-05-17T06:01:56.150Z,8.71
2023-05-17T06:02:56.311Z,8.67
2023-05-17T06:03:56.140Z,8.66
2023-05-17T06:04:56.137Z,8.70
2023-05-17T06:05:56.193Z,8.70
2023-05-17T06:06:56.154Z,8.84
2023-05-17T06:07:57.011Z,8.87
2023-05-17T06:08:58.189Z,8.88
2023-05-17T06:09:56.091Z,9.04
2023-05-17T06:10:56.092Z,9.22
2023-05-17T06:11:56.077Z,9.19
2023-05-17T06:12:56.106Z,9.32
2023-05-17T06:13:56.058Z,9.44
2023-05-17T06:14:57.057Z,9.32
2023-05-17T06:15:56.073Z,9.48
2023-05-17T06:16:56.075Z,9.47
2023-05-17T06:17:56.119Z,9.34
2023-05-17T06:18:56.093Z,9.50
2023-05-17T06:19:56.034Z,9.46
2023-05-17T06:20:56.013Z,9.41
2023-05-17T06:21:56.027Z,9.51
2023-05-17T06:22:55.997Z,9.66
2023-05-17T06:23:56.002Z,9.82
2023-05-17T06:24:55.978Z,9.69
2023-05-17T06:25:55.970Z,9.73
2023-05-17T06:26:55.993Z,9.80
2023-05-17T06:27:55.957Z,9.80
2023-05-17T06:28:55.964Z,9.61
2023-05-17T06:29:55.949Z,9.69
2023-05-17T06:30:55.929Z,9.69
2023-05-17T06:31:55.953Z,9.77
2023-05-17T06:32:55.993Z,9.84
2023-05-17T06:33:55.925Z,9.92
2023-05-17T06:34:56.678Z,9.94
2023-05-17T06:35:57.528Z,9.95
2023-05-17T06:36:56.910Z,9.97
2023-05-17T06:37:55.911Z,9.95
2023-05-17T06:38:55.872Z,10.07
2023-05-17T06:40:00.026Z,10.42
2023-05-17T06:40:58.017Z,10.60
2023-05-17T06:41:55.849Z,10.42
2023-05-17T06:42:55.838Z,10.53
2023-05-17T06:43:55.829Z,10.31
2023-05-17T06:44:55.835Z,10.12
2023-05-17T06:45:56.348Z,9.92
2023-05-17T06:46:55.803Z,10.19
2023-05-17T06:47:55.882Z,10.19
2023-05-17T06:48:56.724Z,10.12
2023-05-17T06:49:55.806Z,9.80
2023-05-17T06:50:55.827Z,9.74
2023-05-17T06:51:55.766Z,9.86
2023-05-17T06:52:55.776Z,9.98
2023-05-17T06:53:55.764Z,10.22
2023-05-17T06:54:55.773Z,10.16
2023-05-17T06:55:55.740Z,10.25
2023-05-17T06:56:55.731Z,10.41
2023-05-17T06:57:55.730Z,10.41
2023-05-17T06:58:55.717Z,10.51
2023-05-17T06:59:55.741Z,10.13
2023-05-17T07:00:55.707Z,9.97
2023-05-17T07:01:55.814Z,9.83
2023-05-17T07:02:56.639Z,9.95
2023-05-17T07:03:55.943Z,9.98
2023-05-17T07:04:55.722Z,10.10
2023-05-17T07:05:55.673Z,10.17
2023-05-17T07:06:55.652Z,10.22
2023-05-17T07:07:55.650Z,10.34
2023-05-17T07:08:55.663Z,10.20
2023-05-17T07:09:55.647Z,10.19
2023-05-17T07:10:55.619Z,10.17
2023-05-17T07:11:55.618Z,10.20
2023-05-17T07:12:55.651Z,10.31
2023-05-17T07:13:55.628Z,10.22
2023-05-17T07:14:55.598Z,10.15
2023-05-17T07:15:55.581Z,10.07
2023-05-17T07:16:56.577Z,9.99
2023-05-17T07:17:55.739Z,9.91
2023-05-17T07:18:55.616Z,9.89
2023-05-17T07:19:55.656Z,9.91
2023-05-17T07:20:55.564Z,9.97
2023-05-17T07:21:55.552Z,9.86
2023-05-17T07:22:55.557Z,9.92
2023-05-17T07:23:55.553Z,9.92
2023-05-17T07:24:55.514Z,9.83
2023-05-17T07:25:55.555Z,9.89
2023-05-17T07:26:55.496Z,9.86
2023-05-17T07:27:56.534Z,9.92
2023-05-17T07:28:55.498Z,9.97
2023-05-17T07:29:55.484Z,9.84
2023-05-17T07:30:55.471Z,9.91
2023-05-17T07:31:55.471Z,9.95
2023-05-17T07:32:55.547Z,9.98
2023-05-17T07:33:55.492Z,9.92
2023-05-17T07:34:55.455Z,10.10
2023-05-17T07:35:55.464Z,10.20
2023-05-17T07:36:55.426Z,10.35
2023-05-17T07:37:55.449Z,10.44
2023-05-17T07:38:55.419Z,10.42
2023-05-17T07:39:55.418Z,10.56
2023-05-17T07:40:55.398Z,10.78
2023-05-17T07:41:55.720Z,11.11
2023-05-17T07:42:55.405Z,10.92
2023-05-17T07:43:55.384Z,11.05
2023-05-17T07:44:55.373Z,11.33
2023-05-17T07:45:55.355Z,11.30
2023-05-17T07:46:55.446Z,11.00
2023-05-17T07:47:55.454Z,10.75
2023-05-17T07:48:58.134Z,10.79
2023-05-17T07:49:55.486Z,10.86
2023-05-17T07:50:55.314Z,11.00
2023-05-17T07:51:55.334Z,11.02
2023-05-17T07:52:55.305Z,10.96
2023-05-17T07:53:55.318Z,10.89
2023-05-17T07:54:55.536Z,10.86
2023-05-17T07:55:55.303Z,10.74
2023-05-17T07:56:55.314Z,10.54
2023-05-17T07:57:55.279Z,10.34
2023-05-17T07:58:55.294Z,10.44
2023-05-17T07:59:55.248Z,10.28
2023-05-17T08:00:55.281Z,10.37
2023-05-17T08:01:55.253Z,10.31
2023-05-17T08:02:55.264Z,10.28
2023-05-17T08:03:55.227Z,10.31
2023-05-17T08:04:55.246Z,10.35
2023-05-17T08:05:55.267Z,10.13
2023-05-17T08:06:56.205Z,10.23
2023-05-17T08:07:55.200Z,10.23
2023-05-17T08:08:55.192Z,10.30
2023-05-17T08:09:55.203Z,10.22
2023-05-17T08:10:55.200Z,10.23
2023-05-17T08:11:55.166Z,10.33
2023-05-17T08:12:55.156Z,10.59
2023-05-17T08:13:55.149Z,10.86
2023-05-17T08:14:55.167Z,11.10
2023-05-17T08:16:05.193Z,11.37
2023-05-17T08:16:57.129Z,11.70
2023-05-17T08:17:55.207Z,11.70
2023-05-17T08:18:55.199Z,11.33
2023-05-17T08:19:55.157Z,11.43
2023-05-17T08:20:55.118Z,11.60
2023-05-17T08:21:55.089Z,11.37
2023-05-17T08:22:55.229Z,11.30
2023-05-17T08:23:55.101Z,11.19
2023-05-17T08:24:56.570Z,11.35
2023-05-17T08:25:55.056Z,11.43
2023-05-17T08:26:55.055Z,11.50
2023-05-17T08:27:55.052Z,11.73
2023-05-17T08:28:55.099Z,11.88
2023-05-17T08:29:55.027Z,11.97
2023-05-17T08:30:55.029Z,11.97
2023-05-17T08:31:55.555Z,11.95
2023-05-17T08:32:55.120Z,11.88
2023-05-17T08:33:55.039Z,11.36
2023-05-17T08:34:54.997Z,11.35
2023-05-17T08:35:55.964Z,11.25
2023-05-17T08:36:55.001Z,11.25
2023-05-17T08:37:54.995Z,11.17
2023-05-17T08:38:54.982Z,11.10
2023-05-17T08:39:54.959Z,11.07
2023-05-17T08:40:54.945Z,11.26
2023-05-17T08:41:54.930Z,11.43
2023-05-17T08:42:54.955Z,11.47
2023-05-17T08:43:54.938Z,11.51
2023-05-17T08:44:54.934Z,11.54
2023-05-17T08:45:54.906Z,11.44
2023-05-17T08:46:54.899Z,11.52
2023-05-17T08:47:54.980Z,11.60
2023-05-17T08:48:54.985Z,11.66
2023-05-17T08:49:54.871Z,11.30
2023-05-17T08:50:54.877Z,11.33
2023-05-17T08:51:54.855Z,11.26
2023-05-17T08:52:54.932Z,11.51
2023-05-17T08:53:55.011Z,11.63
2023-05-17T08:54:55.825Z,11.90
2023-05-17T08:55:54.826Z,11.65
2023-05-17T08:56:54.812Z,11.55
2023-05-17T08:57:54.839Z,11.29
2023-05-17T08:58:57.204Z,11.32
2023-05-17T08:59:55.792Z,11.35
2023-05-17T09:00:54.788Z,11.50
2023-05-17T09:01:54.820Z,11.68
2023-05-17T09:02:54.855Z,11.99
2023-05-17T09:03:54.928Z,12.27
2023-05-17T09:04:54.846Z,12.28
2023-05-17T09:05:54.826Z,12.03
2023-05-17T09:06:54.775Z,12.06
2023-05-17T09:07:54.729Z,12.43
2023-05-17T09:08:54.919Z,12.79
2023-05-17T09:09:54.727Z,12.75
2023-05-17T09:10:54.712Z,12.62
2023-05-17T09:11:54.758Z,12.32
2023-05-17T09:12:54.689Z,12.06
2023-05-17T09:13:54.685Z,11.84
2023-05-17T09:14:54.681Z,11.78
2023-05-17T09:15:54.672Z,11.81
2023-05-17T09:16:54.689Z,11.72
2023-05-17T09:17:54.795Z,11.66
2023-05-17T09:18:57.243Z,11.72
2023-05-17T09:19:54.785Z,11.84
2023-05-17T09:20:54.643Z,11.83
2023-05-17T09:21:54.655Z,11.87
2023-05-17T09:22:54.621Z,11.70
2023-05-17T09:24:05.600Z,11.59
2023-05-17T09:24:56.608Z,11.75
2023-05-17T09:25:54.628Z,11.65
2023-05-17T09:26:54.689Z,11.52
2023-05-17T09:27:54.581Z,11.54
2023-05-17T09:28:54.574Z,11.57
2023-05-17T09:29:54.573Z,11.52
2023-05-17T09:30:54.591Z,11.63
2023-05-17T09:31:54.558Z,11.87
2023-05-17T09:32:54.555Z,12.15
2023-05-17T09:33:54.582Z,12.32
2023-05-17T09:34:54.532Z,12.50
2023-05-17T09:35:54.552Z,12.54
2023-05-17T09:36:54.524Z,12.55
2023-05-17T09:37:54.513Z,12.72
2023-05-17T09:38:54.506Z,12.72
2023-05-17T09:39:54.527Z,12.72
2023-05-17T09:40:54.515Z,12.80
2023-05-17T09:41:54.481Z,12.73
2023-05-17T09:42:54.480Z,12.68
2023-05-17T09:43:54.462Z,12.25
2023-05-17T09:44:54.522Z,12.31
2023-05-17T09:45:54.488Z,11.73
2023-05-17T09:46:54.451Z,11.83
2023-05-17T09:47:54.562Z,11.75
2023-05-17T09:48:54.545Z,11.75
2023-05-17T09:49:54.462Z,11.36
2023-05-17T09:50:54.418Z,11.25
2023-05-17T09:51:54.408Z,11.40
2023-05-17T09:52:54.416Z,11.55
2023-05-17T09:53:54.397Z,11.95
2023-05-17T09:54:54.426Z,12.45
2023-05-17T09:55:54.384Z,12.86
2023-05-17T09:56:54.371Z,13.03
2023-05-17T09:57:54.357Z,13.47
2023-05-17T09:58:54.355Z,13.28
2023-05-17T09:59:54.376Z,13.13
2023-05-17T10:00:54.354Z,12.91
2023-05-17T10:01:54.379Z,13.00
2023-05-17T10:02:54.447Z,13.15
2023-05-17T10:03:54.386Z,13.28
2023-05-17T10:04:54.332Z,13.33
2023-05-17T10:05:54.313Z,13.41
2023-05-17T10:06:54.291Z,12.80
2023-05-17T10:07:54.286Z,12.42
2023-05-17T10:08:54.708Z,12.09
2023-05-17T10:09:54.273Z,12.39
2023-05-17T10:10:54.257Z,12.75
2023-05-17T10:11:54.255Z,12.09
2023-05-17T10:12:54.253Z,12.17
2023-05-17T10:13:54.271Z,12.27
2023-05-17T10:14:54.319Z,12.73
2023-05-17T10:15:55.234Z,13.08
2023-05-17T10:16:54.244Z,13.08
2023-05-17T10:17:54.315Z,13.03
2023-05-17T10:18:54.279Z,12.32
2023-05-17T10:19:54.322Z,12.45
2023-05-17T10:20:54.194Z,12.49
2023-05-17T10:21:54.177Z,12.57
2023-05-17T10:22:54.198Z,12.39
2023-05-17T10:23:54.180Z,12.22
2023-05-17T10:24:54.214Z,12.10
2023-05-17T10:25:54.149Z,12.04
2023-05-17T10:26:54.157Z,11.86
2023-05-17T10:27:54.166Z,11.80
2023-05-17T10:28:54.124Z,12.03
2023-05-17T10:29:54.131Z,11.97
2023-05-17T10:30:54.110Z,12.10
2023-05-17T10:31:54.099Z,12.50
2023-05-17T10:32:54.243Z,12.83
2023-05-17T10:33:54.192Z,13.03
2023-05-17T10:35:05.892Z,13.09
2023-05-17T10:35:56.079Z,13.33
2023-05-17T10:36:54.093Z,13.27
2023-05-17T10:37:54.085Z,13.74
2023-05-17T10:38:54.053Z,13.37
2023-05-17T10:39:54.038Z,12.90
2023-05-17T10:40:54.041Z,12.68
2023-05-17T10:41:57.986Z,12.79
2023-05-17T10:42:55.023Z,12.76
2023-05-17T10:43:54.007Z,12.75
2023-05-17T10:44:54.007Z,13.38
2023-05-17T10:45:54.053Z,13.41
2023-05-17T10:46:54.005Z,13.13
2023-05-17T10:47:54.006Z,13.00
2023-05-17T10:48:54.006Z,13.01
2023-05-17T10:49:53.962Z,12.68
2023-05-17T10:51:00.973Z,12.60
2023-05-17T10:51:55.979Z,12.50
2023-05-17T10:52:53.939Z,12.75
2023-05-17T10:53:53.928Z,12.86
2023-05-17T10:55:27.868Z,12.91
2023-05-17T10:55:53.938Z,13.20
2023-05-17T10:56:53.933Z,13.56
2023-05-17T10:57:53.899Z,13.95
2023-05-17T10:58:53.888Z,14.32
2023-05-17T10:59:53.884Z,14.17
2023-05-17T11:00:55.299Z,13.81
2023-05-17T11:01:54.869Z,13.03
2023-05-17T11:02:53.910Z,13.50
2023-05-17T11:03:53.853Z,14.04
2023-05-17T11:04:53.911Z,14.81
2023-05-17T11:05:54.268Z,15.17
2023-05-17T11:06:54.002Z,15.00
2023-05-17T11:07:53.810Z,14.88
2023-05-17T11:08:53.818Z,14.07
2023-05-17T11:09:53.812Z,13.87
2023-05-17T11:10:53.828Z,13.90
2023-05-17T11:11:53.792Z,13.50
2023-05-17T11:12:53.830Z,13.25
2023-05-17T11:13:53.789Z,13.44
2023-05-17T11:14:53.809Z,13.22
2023-05-17T11:15:53.824Z,12.85
2023-05-17T11:16:55.036Z,12.83
2023-05-17T11:17:53.828Z,12.68
2023-05-17T11:18:53.814Z,12.82
2023-05-17T11:19:53.806Z,12.87
2023-05-17T11:20:53.851Z,12.90
2023-05-17T11:21:53.722Z,13.18
2023-05-17T11:22:53.711Z,13.41
2023-05-17T11:23:53.694Z,13.65
2023-05-17T11:24:53.717Z,13.68
2023-05-17T11:25:54.954Z,13.35
2023-05-17T11:26:54.680Z,13.42
2023-05-17T11:27:53.666Z,13.22
2023-05-17T11:28:53.672Z,13.23
2023-05-17T11:29:53.682Z,13.35
2023-05-17T11:30:53.847Z,13.04
2023-05-17T11:31:53.642Z,13.25
2023-05-17T11:32:53.697Z,13.70
2023-05-17T11:33:53.680Z,14.03
2023-05-17T11:34:53.647Z,14.23
2023-05-17T11:35:53.618Z,14.41
2023-05-17T11:36:53.608Z,14.43
2023-05-17T11:37:53.609Z,14.08
2023-05-17T11:39:01.404Z,13.71
2023-05-17T11:39:56.536Z,13.83
2023-05-17T11:40:53.581Z,13.97
2023-05-17T11:41:53.578Z,13.97
2023-05-17T11:42:53.564Z,13.57
2023-05-17T11:43:53.591Z,13.53
2023-05-17T11:44:53.575Z,13.68
2023-05-17T11:45:53.885Z,14.08
2023-05-17T11:46:53.536Z,14.07
2023-05-17T11:47:53.630Z,13.67
2023-05-17T11:48:53.925Z,13.53
2023-05-17T11:49:55.680Z,13.30
2023-05-17T11:50:54.528Z,13.22
2023-05-17T11:51:53.525Z,12.98
2023-05-17T11:52:53.517Z,12.95
2023-05-17T11:53:53.621Z,13.03
2023-05-17T11:54:53.474Z,13.56
2023-05-17T11:55:53.468Z,13.52
2023-05-17T11:56:53.458Z,13.70
2023-05-17T11:57:53.470Z,13.86
2023-05-17T11:58:53.439Z,13.83
2023-05-17T11:59:53.430Z,13.72
2023-05-17T12:00:53.487Z,13.81
2023-05-17T12:01:53.440Z,13.85
2023-05-17T12:02:53.465Z,13.71
2023-05-17T12:03:53.397Z,13.57
2023-05-17T12:04:53.431Z,13.37
2023-05-17T12:05:54.293Z,12.91
2023-05-17T12:06:53.655Z,12.87
2023-05-17T12:07:53.395Z,12.78
2023-05-17T12:08:53.393Z,12.85
2023-05-17T12:09:53.351Z,13.20
2023-05-17T12:10:53.387Z,12.90
2023-05-17T12:11:53.372Z,13.18
2023-05-17T12:12:53.369Z,13.39
2023-05-17T12:13:53.328Z,13.47
2023-05-17T12:14:53.330Z,13.47
2023-05-17T12:15:53.341Z,13.28
2023-05-17T12:16:53.334Z,13.30
2023-05-17T12:17:53.515Z,13.37
2023-05-17T12:18:53.405Z,13.54
2023-05-17T12:19:53.337Z,13.85
2023-05-17T12:20:53.279Z,14.08
2023-05-17T12:21:53.411Z,14.03
2023-05-17T12:22:53.250Z,14.03
2023-05-17T12:23:53.239Z,14.12
2023-05-17T12:24:54.163Z,14.28
2023-05-17T12:25:53.231Z,14.54
2023-05-17T12:26:53.246Z,14.97
2023-05-17T12:27:53.214Z,15.46
2023-05-17T12:28:53.256Z,15.80
2023-05-17T12:29:53.193Z,15.04
2023-05-17T12:30:53.253Z,14.41
2023-05-17T12:31:53.226Z,14.03
2023-05-17T12:32:53.311Z,13.77
2023-05-17T12:33:53.310Z,13.78
2023-05-17T12:34:53.149Z,13.79
2023-05-17T12:35:53.177Z,13.50
2023-05-17T12:36:53.137Z,13.38
2023-05-17T12:37:53.140Z,13.22
2023-05-17T12:38:53.128Z,13.30
2023-05-17T12:39:53.121Z,13.13
2023-05-17T12:40:54.145Z,13.01
2023-05-17T12:41:53.106Z,13.12
2023-05-17T12:42:53.096Z,13.20
2023-05-17T12:43:55.018Z,13.16
2023-05-17T12:44:55.101Z,12.85
2023-05-17T12:45:53.149Z,13.03
2023-05-17T12:46:53.063Z,13.38
2023-05-17T12:47:53.107Z,13.54
2023-05-17T12:48:53.141Z,13.87
2023-05-17T12:49:53.090Z,14.30
2023-05-17T12:50:53.033Z,14.54
2023-05-17T12:51:53.027Z,14.58
2023-05-17T12:52:53.020Z,14.48
2023-05-17T12:53:53.037Z,14.45
2023-05-17T12:54:53.028Z,13.90
2023-05-17T12:55:52.996Z,14.04
2023-05-17T12:56:52.986Z,14.26
2023-05-17T12:57:52.982Z,14.08
2023-05-17T12:58:53.036Z,14.30
2023-05-17T12:59:52.991Z,14.63
2023-05-17T13:00:52.962Z,14.62
2023-05-17T13:01:52.947Z,14.07
2023-05-17T13:02:53.047Z,13.63
2023-05-17T13:03:53.084Z,13.96
2023-05-17T13:04:53.019Z,14.20
2023-05-17T13:05:52.929Z,14.36
2023-05-17T13:06:52.919Z,14.41